createdAt,value
2019-03-28T00:03:39.814Z,102901.42
2019-03-28T00:08:46.354Z,102911.36
2019-03-28T00:13:52.739Z,102923.30
2019-03-28T00:19:01.946Z,102914.14
2019-03-28T00:24:12.794Z,102906.61
2019-03-28T00:29:19.111Z,102903.09
2019-03-28T00:34:25.467Z,102897.70
2019-03-28T00:39:31.869Z,102891.25
2019-03-28T00:50:53.371Z,102886.44
2019-03-28T00:55:59.590Z,102890.81
2019-03-28T01:01:05.832Z,102892.86
2019-03-28T01:06:12.151Z,102891.45
2019-03-28T01:11:18.384Z,102893.47
2019-03-28T01:16:24.653Z,102891.91
2019-03-28T01:21:31.000Z,102892.41
2019-03-28T01:26:37.239Z,102889.09
2019-03-28T01:31:43.510Z,102889.77
2019-03-28T01:36:49.747Z,102890.00
2019-03-28T01:41:56.005Z,102884.91
2019-03-28T01:47:02.248Z,102879.66
2019-03-28T01:52:08.518Z,102883.47
2019-03-28T01:57:14.802Z,102871.94
2019-03-28T02:02:21.049Z,102868.69
2019-03-28T02:07:27.281Z,102877.31
2019-03-28T02:12:33.603Z,102882.82
2019-03-28T02:17:39.833Z,102880.48
2019-03-28T02:22:46.099Z,102879.59
2019-03-28T02:27:52.446Z,102881.24
2019-03-28T02:32:58.694Z,102877.53
2019-03-28T02:38:04.964Z,102874.94
2019-03-28T02:43:11.283Z,102875.74
2019-03-28T02:48:17.516Z,102873.98
2019-03-28T02:53:23.753Z,102877.37
2019-03-28T02:58:30.201Z,102881.61
2019-03-28T03:03:36.416Z,102879.30
2019-03-28T03:08:42.675Z,102885.58
2019-03-28T03:13:48.939Z,102894.23
2019-03-28T03:18:55.161Z,102890.07
2019-03-28T03:24:01.436Z,102893.14
2019-03-28T03:29:07.807Z,102900.73
2019-03-28T03:34:14.048Z,102901.37
2019-03-28T03:39:20.274Z,102900.77
2019-03-28T03:44:26.525Z,102905.29
2019-03-28T03:49:32.758Z,102899.71
2019-03-28T03:54:39.000Z,102904.65
2019-03-28T03:59:45.277Z,102910.61
2019-03-28T04:04:51.542Z,102919.36
2019-03-28T04:09:57.814Z,102922.28
2019-03-28T04:15:04.051Z,102930.93
2019-03-28T04:20:10.363Z,102924.07
2019-03-28T04:25:16.642Z,102928.84
2019-03-28T04:30:23.192Z,102936.69
2019-03-28T04:35:29.463Z,102941.18
2019-03-28T04:40:35.938Z,102940.77
2019-03-28T04:45:42.389Z,102938.39
2019-03-28T04:50:48.771Z,102947.44
2019-03-28T04:55:55.050Z,102943.72
2019-03-28T05:01:01.442Z,102951.72
2019-03-28T05:06:07.697Z,102951.64
2019-03-28T05:11:14.036Z,102956.39
2019-03-28T05:16:20.361Z,102960.36
2019-03-28T05:21:26.609Z,102959.92
2019-03-28T05:26:32.882Z,102963.02
2019-03-28T05:31:39.128Z,102964.27
2019-03-28T05:36:45.585Z,102974.30
2019-03-28T05:41:52.007Z,102974.14
2019-03-28T05:46:58.320Z,102976.98
2019-03-28T05:52:04.558Z,102978.78
2019-03-28T05:57:10.851Z,102983.44
2019-03-28T06:02:17.286Z,102990.18
2019-03-28T06:07:23.513Z,102987.37
2019-03-28T06:12:29.804Z,102982.87
2019-03-28T06:17:36.045Z,102990.45
2019-03-28T06:22:42.285Z,102987.86
2019-03-28T06:27:48.707Z,102991.03
2019-03-28T06:32:55.035Z,102994.70
2019-03-28T06:38:01.332Z,102992.91
2019-03-28T06:43:07.584Z,102990.41
2019-03-28T06:48:14.037Z,102996.72
2019-03-28T06:53:20.481Z,103000.48
2019-03-28T06:58:26.700Z,102994.70
2019-03-28T07:03:32.973Z,103001.76
2019-03-28T07:08:39.323Z,103000.02
2019-03-28T07:13:45.526Z,102996.27
2019-03-28T07:18:51.822Z,102992.39
2019-03-28T07:23:58.196Z,102989.41
2019-03-28T07:29:04.536Z,102989.02
2019-03-28T07:34:13.455Z,102987.81
2019-03-28T07:39:19.262Z,102984.20
2019-03-28T07:44:25.834Z,102973.84
2019-03-28T07:49:32.100Z,102971.14
2019-03-28T07:54:39.329Z,102973.16
2019-03-28T07:59:45.664Z,102979.55
2019-03-28T08:04:51.916Z,102989.42
2019-03-28T08:09:58.153Z,102990.47
2019-03-28T08:15:04.553Z,102984.97
2019-03-28T08:20:11.002Z,102984.77
2019-03-28T08:25:17.320Z,102982.67
2019-03-28T08:30:39.068Z,102984.36
2019-03-28T08:35:45.364Z,102989.66
2019-03-28T08:40:51.743Z,103002.81
2019-03-28T08:45:58.163Z,103010.83
2019-03-28T08:51:04.549Z,103014.57
2019-03-28T08:56:10.874Z,103015.10
2019-03-28T09:01:17.258Z,103017.05
2019-03-28T09:06:23.552Z,103022.08
2019-03-28T09:11:29.815Z,103021.11
2019-03-28T09:16:36.169Z,103030.97
2019-03-28T09:21:42.386Z,103034.13
2019-03-28T09:26:48.611Z,103035.70
2019-03-28T09:31:55.124Z,103038.12
2019-03-28T09:37:01.450Z,103040.44
2019-03-28T09:42:07.758Z,103040.11
2019-03-28T09:47:14.060Z,103041.77
2019-03-28T09:52:20.341Z,103043.70
2019-03-28T09:57:28.424Z,103042.31
2019-03-28T10:02:34.764Z,103040.00
2019-03-28T10:07:41.099Z,103040.81
2019-03-28T10:12:47.369Z,103038.31
2019-03-28T10:17:54.813Z,103041.32
2019-03-28T10:23:01.317Z,103034.25
2019-03-28T10:28:07.623Z,103032.48
2019-03-28T10:33:13.920Z,103028.72
2019-03-28T10:38:20.230Z,103016.41
2019-03-28T10:43:26.461Z,103012.42
2019-03-28T10:48:32.713Z,103009.04
2019-03-28T10:53:39.041Z,103011.48
2019-03-28T10:58:45.385Z,103007.16
2019-03-28T11:03:51.747Z,103008.91
2019-03-28T11:08:58.061Z,103007.00
2019-03-28T11:14:04.411Z,102993.84
2019-03-28T11:19:10.708Z,102989.85
2019-03-28T11:24:16.983Z,102991.70
2019-03-28T11:29:23.318Z,102986.27
2019-03-28T11:34:29.731Z,102974.98
2019-03-28T11:39:36.020Z,102966.63
2019-03-28T11:44:42.351Z,102956.63
2019-03-28T11:49:48.593Z,102956.06
2019-03-28T11:54:54.831Z,102955.49
2019-03-28T12:00:01.474Z,102949.98
2019-03-28T12:05:08.401Z,102957.86
2019-03-28T12:10:14.724Z,102960.84
2019-03-28T12:15:21.057Z,102962.73
2019-03-28T12:20:27.467Z,102962.97
2019-03-28T12:25:33.788Z,102965.95
2019-03-28T12:30:40.084Z,102958.23
2019-03-28T12:35:46.421Z,102950.30
2019-03-28T12:40:53.162Z,102944.44
2019-03-28T12:45:59.388Z,102949.50
2019-03-28T12:51:05.693Z,102944.73
2019-03-28T12:56:12.470Z,102938.59
2019-03-28T13:01:18.847Z,102947.36
2019-03-28T13:06:25.073Z,102944.25
2019-03-28T13:11:31.367Z,102937.70
2019-03-28T13:16:37.594Z,102931.06
2019-03-28T13:21:43.916Z,102927.21
2019-03-28T13:26:50.191Z,102922.75
2019-03-28T13:31:56.478Z,102927.19
2019-03-28T13:37:02.783Z,102918.52
2019-03-28T13:42:08.988Z,102912.33
2019-03-28T13:47:15.600Z,102906.89
2019-03-28T13:52:21.934Z,102904.82
2019-03-28T13:57:28.364Z,102905.05
2019-03-28T14:02:34.600Z,102898.31
2019-03-28T14:07:40.901Z,102895.02
2019-03-28T14:12:47.187Z,102890.33
2019-03-28T14:17:54.790Z,102890.73
2019-03-28T14:23:01.210Z,102889.61
2019-03-28T14:28:07.462Z,102885.01
2019-03-28T14:33:15.972Z,102881.25
2019-03-28T14:38:22.481Z,102884.13
2019-03-28T14:43:28.916Z,102886.43
2019-03-28T14:48:36.286Z,102886.27
2019-03-28T14:53:42.596Z,102885.91
2019-03-28T14:58:49.130Z,102878.39
2019-03-28T15:03:56.274Z,102874.68
2019-03-28T15:09:03.200Z,102868.64
2019-03-28T15:14:09.494Z,102863.75
2019-03-28T15:19:16.132Z,102853.36
2019-03-28T15:24:23.203Z,102850.42
2019-03-28T15:29:29.550Z,102850.58
2019-03-28T15:34:36.067Z,102838.89
2019-03-28T15:39:42.491Z,102837.39
2019-03-28T15:44:49.269Z,102832.84
2019-03-28T15:49:55.964Z,102833.34
2019-03-28T15:55:02.703Z,102837.06
2019-03-28T16:00:09.651Z,102835.38
2019-03-28T16:05:16.029Z,102842.39
2019-03-28T16:10:22.415Z,102840.72
2019-03-28T16:15:28.759Z,102844.44
2019-03-28T16:20:35.175Z,102839.80
2019-03-28T16:25:41.446Z,102847.00
2019-03-28T16:30:47.759Z,102849.69
2019-03-28T16:35:54.082Z,102844.67
2019-03-28T16:41:00.345Z,102849.78
2019-03-28T16:46:07.817Z,102850.09
2019-03-28T16:51:17.315Z,102848.56
2019-03-28T16:56:22.230Z,102853.22
2019-03-28T17:01:28.499Z,102852.96
2019-03-28T17:06:34.802Z,102855.95
2019-03-28T17:11:41.026Z,102857.48
2019-03-28T17:16:47.370Z,102852.33
2019-03-28T17:21:53.660Z,102859.55
2019-03-28T17:27:00.033Z,102859.75
2019-03-28T17:32:06.380Z,102860.52
2019-03-28T17:37:27.514Z,102865.39
2019-03-28T17:42:33.760Z,102866.88
2019-03-28T17:47:40.048Z,102875.55
2019-03-28T17:52:46.317Z,102875.24
2019-03-28T17:57:54.620Z,102865.30
2019-03-28T18:03:09.129Z,102868.94
2019-03-28T18:08:09.014Z,102865.89
2019-03-28T18:13:15.361Z,102867.67
2019-03-28T18:18:21.651Z,102868.02
2019-03-28T18:23:28.207Z,102866.45
2019-03-28T18:28:35.693Z,102875.06
2019-03-28T18:33:42.430Z,102876.96
2019-03-28T18:38:48.660Z,102887.73
2019-03-28T18:43:54.882Z,102890.97
2019-03-28T18:49:01.195Z,102896.47
2019-03-28T18:54:07.568Z,102889.22
2019-03-28T18:59:13.841Z,102889.88
2019-03-28T19:04:20.076Z,102891.31
2019-03-28T19:09:26.430Z,102883.57
2019-03-28T19:14:33.734Z,102886.59
2019-03-28T19:19:40.001Z,102886.33
2019-03-28T19:24:46.366Z,102887.47
2019-03-28T19:29:52.666Z,102885.06
2019-03-28T19:35:02.740Z,102886.12
2019-03-28T19:40:07.643Z,102888.68
2019-03-28T19:45:17.225Z,102873.60
2019-03-28T19:50:29.993Z,102873.78
2019-03-28T19:55:39.724Z,102865.06
2019-03-28T20:00:45.056Z,102861.60
2019-03-28T20:05:53.009Z,102858.53
2019-03-28T20:11:01.772Z,102857.36
2019-03-28T20:16:09.313Z,102856.52
2019-03-28T20:21:24.755Z,102850.98
2019-03-28T20:26:41.650Z,102854.77
2019-03-28T20:31:49.055Z,102858.09
2019-03-28T20:36:56.392Z,102866.27
2019-03-28T20:42:04.845Z,102862.52
2019-03-28T20:47:16.691Z,102860.72
2019-03-28T20:52:24.307Z,102874.73
2019-03-28T20:57:31.894Z,102861.98
2019-03-28T21:02:44.164Z,102865.67
2019-03-28T21:07:53.680Z,102861.10
2019-03-28T21:13:00.642Z,102860.23
2019-03-28T21:18:06.906Z,102853.14
2019-03-28T21:23:13.431Z,102852.75
2019-03-28T21:28:19.748Z,102861.42
2019-03-28T21:33:26.082Z,102854.20
2019-03-28T21:38:32.276Z,102860.21
2019-03-28T21:43:38.558Z,102858.88
2019-03-28T21:48:44.865Z,102862.70
2019-03-28T21:53:51.131Z,102869.19
2019-03-28T21:58:57.340Z,102877.70
2019-03-28T22:04:03.590Z,102878.42
2019-03-28T22:09:09.940Z,102888.95
2019-03-28T22:14:16.147Z,102888.24
2019-03-28T22:19:22.390Z,102883.02
2019-03-28T22:24:28.594Z,102879.23
2019-03-28T22:29:34.825Z,102881.66
2019-03-28T22:34:41.086Z,102883.31
2019-03-28T22:39:47.360Z,102886.45
2019-03-28T22:44:53.801Z,102884.92
2019-03-28T22:50:00.062Z,102879.28
2019-03-28T22:55:07.161Z,102881.92
2019-03-28T23:00:13.751Z,102879.11
2019-03-28T23:05:19.950Z,102878.14
2019-03-28T23:10:26.247Z,102876.22
2019-03-28T23:15:32.442Z,102874.13
2019-03-28T23:20:38.698Z,102877.50
2019-03-28T23:25:45.021Z,102863.22
2019-03-28T23:30:51.289Z,102860.03
2019-03-28T23:35:57.670Z,102859.47
2019-03-28T23:41:03.983Z,102862.20
2019-03-28T23:46:11.741Z,102860.67
2019-03-28T23:51:18.193Z,102863.47
2019-03-28T23:56:24.443Z,102862.55
